createdAt,value
2019-02-26T00:01:16.427Z,103454.33
2019-02-26T00:03:45.020Z,103448.56
2019-02-26T00:06:16.064Z,103454.77
2019-02-26T00:08:49.265Z,103451.23
2019-02-26T00:11:17.949Z,103444.61
2019-02-26T00:13:48.641Z,103445.91
2019-02-26T00:16:20.554Z,103444.59
2019-02-26T00:18:50.241Z,103450.35
2019-02-26T00:21:22.112Z,103461.42
2019-02-26T00:23:53.116Z,103469.81
2019-02-26T00:26:22.889Z,103472.05
2019-02-26T00:28:52.501Z,103465.84
2019-02-26T00:31:24.306Z,103458.80
2019-02-26T00:33:53.452Z,103452.16
2019-02-26T00:36:23.074Z,103459.67
2019-02-26T00:38:52.868Z,103461.00
2019-02-26T00:41:22.900Z,103455.25
2019-02-26T00:43:55.345Z,103451.28
2019-02-26T00:46:28.478Z,103448.21
2019-02-26T00:48:59.102Z,103458.84
2019-02-26T00:51:30.628Z,103464.59
2019-02-26T00:54:02.366Z,103454.89
2019-02-26T00:56:36.434Z,103454.45
2019-02-26T00:59:06.236Z,103452.24
2019-02-26T01:01:36.024Z,103447.80
2019-02-26T01:04:05.759Z,103443.41
2019-02-26T01:06:35.322Z,103464.19
2019-02-26T01:09:10.703Z,103463.32
2019-02-26T01:11:42.965Z,103461.10
2019-02-26T01:14:13.669Z,103458.89
2019-02-26T01:16:46.097Z,103459.78
2019-02-26T01:19:17.598Z,103468.62
2019-02-26T01:21:46.962Z,103467.31
2019-02-26T01:24:17.254Z,103462.01
2019-02-26T01:26:46.834Z,103459.36
2019-02-26T01:29:20.655Z,103457.14
2019-02-26T01:31:50.359Z,103458.48
2019-02-26T01:34:20.453Z,103456.72
2019-02-26T01:36:49.969Z,103448.77
2019-02-26T01:39:21.586Z,103445.22
2019-02-26T01:41:53.414Z,103437.72
2019-02-26T01:44:22.215Z,103431.55
2019-02-26T01:46:53.784Z,103431.54
2019-02-26T01:49:26.671Z,103437.29
2019-02-26T01:51:55.919Z,103435.97
2019-02-26T01:54:25.605Z,103447.45
2019-02-26T01:56:55.289Z,103450.10
2019-02-26T01:59:25.162Z,103444.79
2019-02-26T02:01:56.091Z,103448.33
2019-02-26T02:04:25.592Z,103444.81
2019-02-26T02:06:57.132Z,103438.62
2019-02-26T02:09:26.856Z,103435.97
2019-02-26T02:11:59.939Z,103429.77
2019-02-26T02:14:29.053Z,103434.63
2019-02-26T02:16:58.955Z,103431.11
2019-02-26T02:19:30.185Z,103427.58
2019-02-26T02:21:59.994Z,103423.17
2019-02-26T02:24:29.618Z,103424.04
2019-02-26T02:27:00.316Z,103420.95
2019-02-26T02:29:30.093Z,103424.05
2019-02-26T02:32:04.360Z,103429.34
2019-02-26T02:34:33.099Z,103442.12
2019-02-26T02:37:02.624Z,103447.02
2019-02-26T02:39:34.337Z,103433.32
2019-02-26T02:42:05.308Z,103434.20
2019-02-26T02:44:34.728Z,103431.98
2019-02-26T02:47:08.809Z,103428.88
2019-02-26T02:49:39.886Z,103432.41
2019-02-26T02:52:11.878Z,103431.52
2019-02-26T02:54:44.176Z,103428.86
2019-02-26T02:57:12.902Z,103426.20
2019-02-26T02:59:42.676Z,103424.84
2019-02-26T03:02:15.054Z,103426.61
2019-02-26T03:04:46.270Z,103420.85
2019-02-26T03:07:17.844Z,103415.12
2019-02-26T03:09:49.013Z,103421.71
2019-02-26T03:12:18.470Z,103414.68
2019-02-26T03:14:48.022Z,103418.64
2019-02-26T03:17:20.199Z,103419.09
2019-02-26T03:19:48.998Z,103410.23
2019-02-26T03:22:21.438Z,103420.41
2019-02-26T03:24:51.248Z,103422.59
2019-02-26T03:27:21.308Z,103418.18
2019-02-26T03:29:52.531Z,103419.50
2019-02-26T03:32:22.614Z,103411.97
2019-02-26T03:34:52.220Z,103413.28
2019-02-26T03:37:23.359Z,103419.03
2019-02-26T03:39:55.225Z,103423.44
2019-02-26T03:42:24.746Z,103422.55
2019-02-26T03:44:56.056Z,103421.21
2019-02-26T03:47:25.567Z,103424.30
2019-02-26T03:49:55.096Z,103428.73
2019-02-26T03:52:24.825Z,103428.72
2019-02-26T03:54:54.645Z,103427.84
2019-02-26T03:57:24.862Z,103431.80
2019-02-26T03:59:54.774Z,103426.52
2019-02-26T04:02:26.164Z,103430.05
2019-02-26T04:04:57.243Z,103434.95
2019-02-26T04:07:28.335Z,103441.59
2019-02-26T04:09:58.773Z,103431.42
2019-02-26T04:12:28.425Z,103439.84
2019-02-26T04:14:59.393Z,103429.18
2019-02-26T04:17:30.741Z,103425.23
2019-02-26T04:20:05.090Z,103423.95
2019-02-26T04:22:42.299Z,103425.28
2019-02-26T04:25:24.877Z,103427.89
2019-02-26T04:28:32.905Z,103423.04
2019-02-26T04:31:17.246Z,103431.00
2019-02-26T04:34:01.146Z,103430.10
2019-02-26T04:37:10.360Z,103435.41
2019-02-26T04:39:48.165Z,103437.16
2019-02-26T04:42:50.531Z,103434.95
2019-02-26T04:45:50.872Z,103433.61
2019-02-26T04:48:23.624Z,103438.48
2019-02-26T04:50:53.641Z,103438.55
2019-02-26T04:53:25.335Z,103438.53
2019-02-26T04:55:54.773Z,103430.13
2019-02-26T04:58:24.659Z,103421.75
2019-02-26T05:00:55.608Z,103417.78
2019-02-26T05:03:26.510Z,103415.54
2019-02-26T05:05:57.211Z,103412.92
2019-02-26T05:08:29.384Z,103406.70
2019-02-26T05:11:00.016Z,103401.86
2019-02-26T05:13:32.816Z,103408.03
2019-02-26T05:16:02.544Z,103405.42
2019-02-26T05:18:34.617Z,103412.03
2019-02-26T05:21:08.317Z,103416.47
2019-02-26T05:23:37.574Z,103406.30
2019-02-26T05:26:11.680Z,103403.23
2019-02-26T05:28:40.871Z,103403.70
2019-02-26T05:31:15.161Z,103404.58
2019-02-26T05:33:46.794Z,103393.13
2019-02-26T05:36:18.514Z,103397.11
2019-02-26T05:38:49.265Z,103394.02
2019-02-26T05:41:19.637Z,103403.27
2019-02-26T05:43:52.184Z,103393.58
2019-02-26T05:46:24.230Z,103394.48
2019-02-26T05:48:54.148Z,103396.23
2019-02-26T05:51:24.585Z,103394.02
2019-02-26T05:53:54.816Z,103392.72
2019-02-26T05:56:24.475Z,103394.48
2019-02-26T05:58:53.930Z,103391.75
2019-02-26T06:01:25.044Z,103390.00
2019-02-26T06:03:54.774Z,103395.79
2019-02-26T06:06:24.186Z,103396.23
2019-02-26T06:08:55.197Z,103393.14
2019-02-26T06:11:30.834Z,103393.16
2019-02-26T06:14:01.406Z,103387.84
2019-02-26T06:16:31.455Z,103384.78
2019-02-26T06:19:02.840Z,103383.89
2019-02-26T06:21:32.374Z,103387.00
2019-02-26T06:24:02.203Z,103387.88
2019-02-26T06:26:33.331Z,103379.03
2019-02-26T06:29:03.295Z,103385.66
2019-02-26T06:31:32.994Z,103387.01
2019-02-26T06:34:05.642Z,103382.13
2019-02-26T06:36:35.534Z,103376.84
2019-02-26T06:39:06.083Z,103380.80
2019-02-26T06:41:39.562Z,103380.35
2019-02-26T06:44:08.418Z,103385.66
2019-02-26T06:46:38.426Z,103389.65
2019-02-26T06:49:07.903Z,103398.45
2019-02-26T06:51:37.496Z,103393.61
2019-02-26T06:54:07.440Z,103387.86
2019-02-26T06:56:41.517Z,103390.94
2019-02-26T06:59:12.282Z,103397.10
2019-02-26T07:01:42.178Z,103399.30
2019-02-26T07:04:12.859Z,103400.63
2019-02-26T07:06:42.594Z,103397.97
2019-02-26T07:09:15.247Z,103404.61
2019-02-26T07:11:43.528Z,103410.32
2019-02-26T07:14:12.991Z,103417.81
2019-02-26T07:16:42.549Z,103415.59
2019-02-26T07:19:14.048Z,103421.79
2019-02-26T07:21:45.386Z,103415.11
2019-02-26T07:24:18.071Z,103427.02
2019-02-26T07:26:49.591Z,103415.11
2019-02-26T07:29:19.222Z,103413.36
2019-02-26T07:31:49.524Z,103417.75
2019-02-26T07:34:20.536Z,103418.17
2019-02-26T07:36:53.389Z,103419.02
2019-02-26T07:39:23.126Z,103425.16
2019-02-26T07:41:54.416Z,103421.17
2019-02-26T07:44:25.935Z,103426.87
2019-02-26T07:46:55.445Z,103423.36
2019-02-26T07:49:25.065Z,103431.73
2019-02-26T07:51:56.108Z,103407.38
2019-02-26T07:54:26.227Z,103412.66
2019-02-26T07:56:57.512Z,103398.95
2019-02-26T07:59:27.841Z,103398.53
2019-02-26T08:01:57.812Z,103386.06
2019-02-26T08:04:28.723Z,103383.83
2019-02-26T08:06:59.581Z,103392.20
2019-02-26T08:09:30.538Z,103393.02
2019-02-26T08:12:01.900Z,103398.23
2019-02-26T08:14:31.102Z,103395.98
2019-02-26T08:17:01.909Z,103395.55
2019-02-26T08:19:36.367Z,103390.22
2019-02-26T08:22:04.512Z,103387.52
2019-02-26T08:24:34.244Z,103387.52
2019-02-26T08:27:06.051Z,103392.75
2019-02-26T08:29:36.434Z,103401.61
2019-02-26T08:32:06.250Z,103401.95
2019-02-26T08:34:39.195Z,103402.79
2019-02-26T08:37:08.937Z,103397.80
2019-02-26T08:39:40.286Z,103400.84
2019-02-26T08:42:12.350Z,103397.67
2019-02-26T08:44:46.205Z,103399.79
2019-02-26T08:47:16.217Z,103399.72
2019-02-26T08:49:47.499Z,103392.08
2019-02-26T08:52:21.484Z,103386.74
2019-02-26T08:54:49.007Z,103377.00
2019-02-26T08:57:18.393Z,103366.66
2019-02-26T08:59:49.659Z,103369.17
2019-02-26T09:02:19.097Z,103369.94
2019-02-26T09:04:50.357Z,103364.89
2019-02-26T09:07:21.813Z,103373.69
2019-02-26T09:09:54.895Z,103380.23
2019-02-26T09:12:24.641Z,103373.09
2019-02-26T09:14:57.057Z,103379.52
2019-02-26T09:17:29.706Z,103382.13
2019-02-26T09:20:08.426Z,103377.46
2019-02-26T09:22:30.184Z,103378.70
2019-02-26T09:25:02.207Z,103374.62
2019-02-26T09:27:32.123Z,103377.23
2019-02-26T09:30:05.919Z,103372.78
2019-02-26T09:32:38.021Z,103370.62
2019-02-26T09:35:07.690Z,103370.62
2019-02-26T09:37:37.121Z,103365.61
2019-02-26T09:40:07.682Z,103371.48
2019-02-26T09:42:38.570Z,103379.86
2019-02-26T09:45:10.494Z,103381.09
2019-02-26T09:47:40.054Z,103395.63
2019-02-26T09:50:12.934Z,103399.12
2019-02-26T09:52:47.889Z,103407.11
2019-02-26T09:55:18.246Z,103402.06
2019-02-26T09:57:47.959Z,103397.55
2019-02-26T10:00:22.096Z,103392.48
2019-02-26T10:02:51.893Z,103386.16
2019-02-26T10:05:20.882Z,103385.27
2019-02-26T10:07:52.258Z,103389.67
2019-02-26T10:10:25.353Z,103399.75
2019-02-26T10:12:57.405Z,103395.34
2019-02-26T10:15:26.439Z,103391.64
2019-02-26T10:17:59.588Z,103390.16
2019-02-26T10:20:31.629Z,103391.30
2019-02-26T10:23:04.277Z,103388.84
2019-02-26T10:25:34.962Z,103390.06
2019-02-26T10:28:08.780Z,103389.66
2019-02-26T10:30:38.720Z,103393.55
2019-02-26T10:33:08.934Z,103387.64
2019-02-26T10:35:39.710Z,103391.08
2019-02-26T10:38:11.756Z,103396.30
2019-02-26T10:40:53.493Z,103390.70
2019-02-26T10:43:15.243Z,103383.41
2019-02-26T10:45:47.282Z,103389.37
2019-02-26T10:48:21.912Z,103395.03
2019-02-26T10:50:51.888Z,103397.58
2019-02-26T10:53:22.824Z,103395.18
2019-02-26T10:55:54.466Z,103395.44
2019-02-26T10:58:26.327Z,103400.16
2019-02-26T11:00:58.742Z,103399.94
2019-02-26T11:03:29.621Z,103402.06
2019-02-26T11:06:00.707Z,103402.77
2019-02-26T11:08:32.895Z,103410.20
2019-02-26T11:11:07.410Z,103409.45
2019-02-26T11:13:40.130Z,103408.91
2019-02-26T11:16:09.977Z,103404.86
2019-02-26T11:18:40.704Z,103407.30
2019-02-26T11:21:10.668Z,103400.01
2019-02-26T11:23:43.868Z,103402.59
2019-02-26T11:26:15.325Z,103403.92
2019-02-26T11:28:45.904Z,103402.34
2019-02-26T11:31:19.742Z,103408.92
2019-02-26T11:33:48.832Z,103407.34
2019-02-26T11:36:18.373Z,103409.37
2019-02-26T11:38:48.003Z,103400.44
2019-02-26T11:41:18.363Z,103396.16
2019-02-26T11:43:47.808Z,103406.75
2019-02-26T11:46:17.792Z,103403.47
2019-02-26T11:48:50.629Z,103404.59
2019-02-26T11:51:21.035Z,103397.73
2019-02-26T11:53:50.464Z,103395.79
2019-02-26T11:56:22.967Z,103404.50
2019-02-26T11:58:51.511Z,103400.92
2019-02-26T12:01:21.489Z,103400.82
2019-02-26T12:03:55.886Z,103411.81
2019-02-26T12:06:23.594Z,103404.84
2019-02-26T12:08:53.065Z,103399.20
2019-02-26T12:11:23.295Z,103392.33
2019-02-26T12:13:53.206Z,103387.20
2019-02-26T12:16:28.423Z,103383.91
2019-02-26T12:18:58.885Z,103383.91
2019-02-26T12:21:29.833Z,103380.16
2019-02-26T12:24:03.213Z,103380.59
2019-02-26T12:26:33.106Z,103374.77
2019-02-26T12:29:05.538Z,103372.88
2019-02-26T12:31:38.968Z,103365.73
2019-02-26T12:34:09.148Z,103364.38
2019-02-26T12:36:39.954Z,103357.11
2019-02-26T12:39:09.836Z,103357.40
2019-02-26T12:41:41.746Z,103352.30
2019-02-26T12:44:13.538Z,103344.58
2019-02-26T12:46:47.239Z,103340.48
2019-02-26T12:49:18.047Z,103337.23
2019-02-26T12:51:50.461Z,103333.09
2019-02-26T12:54:20.945Z,103328.88
2019-02-26T12:56:52.303Z,103324.80
2019-02-26T12:59:21.844Z,103324.11
2019-02-26T13:01:52.008Z,103316.75
2019-02-26T13:04:24.921Z,103317.14
2019-02-26T13:06:53.062Z,103313.55
2019-02-26T13:09:26.792Z,103302.16
2019-02-26T13:12:02.320Z,103297.87
2019-02-26T13:14:27.679Z,103297.87
2019-02-26T13:17:00.188Z,103302.66
2019-02-26T13:19:33.275Z,103302.51
2019-02-26T13:22:06.715Z,103299.19
2019-02-26T13:24:32.100Z,103290.62
2019-02-26T13:27:03.656Z,103292.48
2019-02-26T13:29:34.042Z,103285.13
2019-02-26T13:32:07.861Z,103283.70
2019-02-26T13:34:35.852Z,103285.28
2019-02-26T13:37:05.371Z,103282.41
2019-02-26T13:39:38.632Z,103283.87
2019-02-26T13:42:13.099Z,103280.23
2019-02-26T13:44:39.078Z,103280.97
2019-02-26T13:47:08.582Z,103279.96
2019-02-26T13:49:39.962Z,103274.13
2019-02-26T13:52:09.756Z,103278.46
2019-02-26T13:54:40.596Z,103272.05
2019-02-26T13:57:10.543Z,103275.01
2019-02-26T13:59:39.949Z,103272.26
2019-02-26T14:02:10.038Z,103274.88
2019-02-26T14:04:40.702Z,103267.09
2019-02-26T14:07:11.598Z,103267.41
2019-02-26T14:09:41.143Z,103263.05
2019-02-26T14:12:10.678Z,103262.77
2019-02-26T14:14:40.294Z,103255.98
2019-02-26T14:17:09.801Z,103252.70
2019-02-26T14:19:39.394Z,103249.56
2019-02-26T14:22:08.855Z,103247.10
2019-02-26T14:24:40.255Z,103237.27
2019-02-26T14:27:11.401Z,103234.36
2019-02-26T14:29:41.922Z,103227.80
2019-02-26T14:32:12.414Z,103229.11
2019-02-26T14:34:43.313Z,103216.21
2019-02-26T14:37:14.139Z,103217.66
2019-02-26T14:39:43.546Z,103216.91
2019-02-26T14:42:14.086Z,103210.33
2019-02-26T14:44:43.488Z,103221.42
2019-02-26T14:47:14.010Z,103225.75
2019-02-26T14:49:47.833Z,103220.98
2019-02-26T14:52:18.203Z,103214.66
2019-02-26T14:54:48.074Z,103222.77
2019-02-26T14:57:19.928Z,103223.37
2019-02-26T14:59:49.342Z,103225.63
2019-02-26T15:02:18.979Z,103225.69
2019-02-26T15:04:49.686Z,103219.56
2019-02-26T15:07:20.941Z,103215.18
2019-02-26T15:09:51.807Z,103218.39
2019-02-26T15:12:21.488Z,103216.48
2019-02-26T15:14:50.898Z,103217.89
2019-02-26T15:17:20.303Z,103216.02
2019-02-26T15:19:53.133Z,103219.59
2019-02-26T15:22:21.236Z,103225.11
2019-02-26T15:24:50.616Z,103224.52
2019-02-26T15:27:21.210Z,103228.66
2019-02-26T15:29:51.113Z,103225.58
2019-02-26T15:32:20.519Z,103228.05
2019-02-26T15:34:52.081Z,103226.78
2019-02-26T15:37:21.467Z,103228.23
2019-02-26T15:39:51.365Z,103220.02
2019-02-26T15:42:21.107Z,103218.70
2019-02-26T15:44:52.459Z,103219.82
2019-02-26T15:47:21.955Z,103216.32
2019-02-26T15:49:56.601Z,103217.48
2019-02-26T15:52:26.099Z,103228.32
2019-02-26T15:54:57.290Z,103225.39
2019-02-26T15:57:28.625Z,103224.31
2019-02-26T15:59:59.554Z,103221.32
2019-02-26T16:02:29.263Z,103220.70
2019-02-26T16:04:58.869Z,103224.27
2019-02-26T16:07:28.283Z,103226.23
2019-02-26T16:09:57.829Z,103227.14
2019-02-26T16:12:27.415Z,103233.56
2019-02-26T16:14:56.903Z,103232.41
2019-02-26T16:17:26.584Z,103232.16
2019-02-26T16:19:56.111Z,103228.64
2019-02-26T16:22:25.520Z,103230.12
2019-02-26T16:24:54.933Z,103238.70
2019-02-26T16:27:24.828Z,103237.49
2019-02-26T16:29:54.259Z,103240.84
2019-02-26T16:32:23.651Z,103235.56
2019-02-26T16:34:53.084Z,103231.73
2019-02-26T16:37:22.461Z,103236.31
2019-02-26T16:39:51.853Z,103239.98
2019-02-26T16:42:21.413Z,103240.54
2019-02-26T16:44:50.805Z,103236.76
2019-02-26T16:47:21.173Z,103243.55
2019-02-26T16:49:52.276Z,103249.45
2019-02-26T16:52:21.902Z,103253.63
2019-02-26T16:54:51.309Z,103251.07
2019-02-26T16:57:25.734Z,103252.53
2019-02-26T16:59:54.778Z,103253.59
2019-02-26T17:02:27.196Z,103258.70
2019-02-26T17:04:55.500Z,103267.34
2019-02-26T17:07:26.309Z,103264.78
2019-02-26T17:09:56.303Z,103264.04
2019-02-26T17:12:26.943Z,103272.71
2019-02-26T17:14:57.655Z,103273.27
2019-02-26T17:17:27.055Z,103271.20
2019-02-26T17:19:56.734Z,103268.66
2019-02-26T17:22:28.557Z,103265.27
2019-02-26T17:25:01.251Z,103264.61
2019-02-26T17:27:30.688Z,103267.89
2019-02-26T17:30:00.072Z,103270.72
2019-02-26T17:32:31.338Z,103273.98
2019-02-26T17:35:02.721Z,103266.99
2019-02-26T17:37:32.112Z,103278.63
2019-02-26T17:40:03.306Z,103283.13
2019-02-26T17:42:34.523Z,103281.00
2019-02-26T17:45:04.146Z,103286.03
2019-02-26T17:47:33.810Z,103279.48
2019-02-26T17:50:03.407Z,103284.44
2019-02-26T17:52:33.918Z,103277.40
2019-02-26T17:55:04.371Z,103281.50
2019-02-26T17:57:34.670Z,103278.45
2019-02-26T18:00:07.115Z,103285.66
2019-02-26T18:02:36.544Z,103281.78
2019-02-26T18:05:06.698Z,103274.36
2019-02-26T18:07:38.398Z,103284.19
2019-02-26T18:10:12.515Z,103282.50
2019-02-26T18:12:42.678Z,103283.52
2019-02-26T18:15:16.593Z,103283.16
2019-02-26T18:17:45.135Z,103284.63
2019-02-26T18:20:16.620Z,103284.34
2019-02-26T18:22:46.012Z,103276.47
2019-02-26T18:25:16.353Z,103274.81
2019-02-26T18:27:48.778Z,103273.12
2019-02-26T18:30:20.198Z,103271.09
2019-02-26T18:32:50.452Z,103284.03
2019-02-26T18:35:22.956Z,103277.34
2019-02-26T18:37:52.331Z,103277.34
2019-02-26T18:40:21.713Z,103280.58
2019-02-26T18:42:51.363Z,103277.13
2019-02-26T18:45:27.397Z,103272.36
2019-02-26T18:47:55.144Z,103266.66
2019-02-26T18:50:25.813Z,103258.80
2019-02-26T18:52:58.034Z,103257.55
2019-02-26T18:55:32.306Z,103254.92
2019-02-26T18:57:59.683Z,103250.48
2019-02-26T19:00:30.138Z,103256.73
2019-02-26T19:03:00.889Z,103257.21
2019-02-26T19:05:32.076Z,103257.73
2019-02-26T19:08:05.890Z,103253.73
2019-02-26T19:10:35.841Z,103249.33
2019-02-26T19:13:05.532Z,103250.77
2019-02-26T19:15:36.139Z,103257.94
2019-02-26T19:18:06.742Z,103250.02
2019-02-26T19:20:36.699Z,103254.13
2019-02-26T19:23:07.213Z,103255.05
2019-02-26T19:25:36.637Z,103253.41
2019-02-26T19:28:06.249Z,103247.36
2019-02-26T19:30:37.010Z,103249.64
2019-02-26T19:33:08.720Z,103246.53
2019-02-26T19:35:40.342Z,103248.54
2019-02-26T19:38:09.554Z,103248.54
2019-02-26T19:40:41.574Z,103245.94
2019-02-26T19:43:12.094Z,103240.30
2019-02-26T19:45:43.687Z,103231.98
2019-02-26T19:48:12.635Z,103233.83
2019-02-26T19:50:45.604Z,103224.09
2019-02-26T19:53:13.468Z,103232.20
2019-02-26T19:55:43.877Z,103226.49
2019-02-26T19:58:14.406Z,103214.58
2019-02-26T20:00:43.836Z,103219.52
2019-02-26T20:03:13.217Z,103209.41
2019-02-26T20:05:46.634Z,103208.58
2019-02-26T20:08:16.904Z,103211.71
2019-02-26T20:10:49.150Z,103206.89
2019-02-26T20:13:17.466Z,103211.38
2019-02-26T20:15:46.863Z,103199.87
2019-02-26T20:18:20.793Z,103200.83
2019-02-26T20:20:48.275Z,103207.50
2019-02-26T20:23:19.122Z,103215.53
2019-02-26T20:25:50.092Z,103212.46
2019-02-26T20:28:20.522Z,103212.93
2019-02-26T20:30:51.705Z,103206.31
2019-02-26T20:33:21.110Z,103208.97
2019-02-26T20:35:50.676Z,103202.81
2019-02-26T20:38:21.228Z,103198.86
2019-02-26T20:40:51.626Z,103199.80
2019-02-26T20:43:21.076Z,103189.23
2019-02-26T20:45:51.095Z,103191.48
2019-02-26T20:48:21.242Z,103191.95
2019-02-26T20:50:53.764Z,103189.73
2019-02-26T20:53:27.039Z,103188.43
2019-02-26T20:55:57.725Z,103193.02
2019-02-26T20:58:27.771Z,103187.73
2019-02-26T21:00:58.786Z,103183.77
2019-02-26T21:03:28.865Z,103187.30
2019-02-26T21:05:58.454Z,103191.38
2019-02-26T21:08:30.746Z,103190.53
2019-02-26T21:10:58.974Z,103183.08
2019-02-26T21:13:28.539Z,103189.30
2019-02-26T21:15:57.925Z,103182.67
2019-02-26T21:18:30.352Z,103189.34
2019-02-26T21:20:58.512Z,103179.64
2019-02-26T21:23:28.382Z,103181.42
2019-02-26T21:25:57.889Z,103167.33
2019-02-26T21:28:28.851Z,103172.70
2019-02-26T21:30:58.225Z,103170.94
2019-02-26T21:33:30.559Z,103169.61
2019-02-26T21:35:58.987Z,103168.27
2019-02-26T21:38:28.363Z,103168.32
2019-02-26T21:40:57.785Z,103167.05
2019-02-26T21:43:28.938Z,103167.05
2019-02-26T21:45:59.796Z,103170.17
2019-02-26T21:48:29.182Z,103168.42
2019-02-26T21:51:01.081Z,103166.72
2019-02-26T21:53:30.473Z,103172.93
2019-02-26T21:56:00.848Z,103172.05
2019-02-26T21:58:30.609Z,103169.85
2019-02-26T22:01:00.034Z,103169.41
2019-02-26T22:03:29.420Z,103168.51
2019-02-26T22:06:04.975Z,103164.12
2019-02-26T22:08:31.828Z,103162.84
2019-02-26T22:11:01.220Z,103163.23
2019-02-26T22:13:30.832Z,103162.80
2019-02-26T22:16:00.333Z,103154.42
2019-02-26T22:18:34.056Z,103150.05
2019-02-26T22:21:02.338Z,103152.74
2019-02-26T22:23:34.057Z,103151.39
2019-02-26T22:26:02.805Z,103150.09
2019-02-26T22:28:32.310Z,103151.45
2019-02-26T22:31:02.133Z,103145.31
2019-02-26T22:33:32.540Z,103142.23
2019-02-26T22:36:03.668Z,103145.36
2019-02-26T22:38:33.066Z,103144.95
2019-02-26T22:41:02.955Z,103149.86
2019-02-26T22:43:32.593Z,103147.69
2019-02-26T22:46:01.980Z,103143.30
2019-02-26T22:48:32.333Z,103142.42
2019-02-26T22:51:04.603Z,103145.03
2019-02-26T22:53:36.572Z,103138.88
2019-02-26T22:56:07.327Z,103143.77
2019-02-26T22:58:36.919Z,103134.47
2019-02-26T23:01:30.269Z,103132.30
2019-02-26T23:03:53.816Z,103126.17
2019-02-26T23:06:23.313Z,103133.69
2019-02-26T23:08:52.738Z,103132.00
2019-02-26T23:11:23.928Z,103131.59
2019-02-26T23:13:53.686Z,103129.00
2019-02-26T23:16:23.247Z,103132.13
2019-02-26T23:18:53.252Z,103128.63
2019-02-26T23:21:22.967Z,103135.24
2019-02-26T23:23:54.697Z,103131.27
2019-02-26T23:26:23.956Z,103135.77
2019-02-26T23:28:54.931Z,103129.15
2019-02-26T23:31:25.038Z,103128.33
2019-02-26T23:33:54.633Z,103128.33
2019-02-26T23:36:25.742Z,103128.33
2019-02-26T23:38:56.622Z,103125.75
2019-02-26T23:41:26.212Z,103125.75
2019-02-26T23:43:55.642Z,103119.13
2019-02-26T23:46:25.026Z,103128.84
2019-02-26T23:48:54.482Z,103131.08
2019-02-26T23:51:25.333Z,103129.75
2019-02-26T23:53:54.721Z,103128.04
2019-02-26T23:56:24.277Z,103123.61
2019-02-26T23:58:54.812Z,103120.58
